Time;durP1;ratioP1;P1;durP2;ratioP2;P2;SDS_P1;SDS_P2;PMS_P1;PMS_P2;Temp;Humidity;BMP_temperature;BMP_pressure;BME280_temperature;BME280_humidity;BME280_pressure;Samples;Min_cycle;Max_cycle;Signal;HPM_P1;HPM_P2
2021/10/05 00:00:10;;;;;;;3.40;3.20;;;12.70;99.90;;;;;;4975243;28;20316;-76
2021/10/05 00:02:39;;;;;;;5.32;3.38;;;12.70;99.90;;;;;;4975046;28;20288;-75
2021/10/05 00:05:07;;;;;;;3.50;3.20;;;12.80;99.90;;;;;;4977913;28;20225;-74
2021/10/05 00:07:34;;;;;;;3.60;3.30;;;12.80;99.90;;;;;;4966426;28;20202;-74
2021/10/05 00:10:01;;;;;;;3.30;3.05;;;12.80;99.90;;;;;;4958689;28;20237;-75
2021/10/05 00:12:28;;;;;;;3.80;3.50;;;12.80;99.90;;;;;;4957331;28;20762;-75
2021/10/05 00:14:55;;;;;;;5.50;3.22;;;12.70;99.90;;;;;;4956451;29;20290;-76
2021/10/05 00:17:22;;;;;;;3.42;3.13;;;12.70;99.90;;;;;;4961516;28;20208;-75
2021/10/05 00:19:50;;;;;;;5.55;3.72;;;12.70;99.90;;;;;;4974840;28;20311;-75
2021/10/05 00:22:18;;;;;;;4.65;3.63;;;12.60;99.90;;;;;;4969344;28;20205;-76
2021/10/05 00:24:45;;;;;;;4.60;4.20;;;12.60;99.90;;;;;;4956205;29;20213;-77
2021/10/05 00:27:12;;;;;;;4.07;3.70;;;12.50;99.90;;;;;;4958975;28;20292;-75
2021/10/05 00:29:39;;;;;;;4.47;4.07;;;12.50;99.90;;;;;;4974592;28;20265;-76
2021/10/05 00:32:07;;;;;;;5.30;4.20;;;12.40;99.90;;;;;;4974890;28;20276;-77
2021/10/05 00:34:34;;;;;;;4.95;4.45;;;12.40;99.90;;;;;;4974797;28;20241;-77
2021/10/05 00:37:03;;;;;;;5.35;4.55;;;12.40;99.90;;;;;;4974154;28;20300;-77
2021/10/05 00:39:30;;;;;;;7.85;5.05;;;12.40;99.90;;;;;;4956734;29;20301;-77
2021/10/05 00:41:57;;;;;;;5.25;4.70;;;12.40;99.90;;;;;;4959522;28;20216;-74
2021/10/05 00:44:31;;;;;;;6.60;4.95;;;12.40;99.90;;;;;;4977944;28;20513;-75
2021/10/05 00:47:01;;;;;;;4.70;4.28;;;12.40;99.90;;;;;;4975642;28;20580;-78
2021/10/05 00:49:28;;;;;;;7.45;5.45;;;12.40;99.90;;;;;;4954920;29;20230;-78
2021/10/05 00:51:55;;;;;;;5.43;4.95;;;12.40;99.90;;;;;;4954811;29;20241;-77
2021/10/05 00:54:24;;;;;;;6.13;5.53;;;12.40;99.90;;;;;;4973163;28;20216;-77
2021/10/05 00:56:50;;;;;;;8.57;5.82;;;12.40;99.90;;;;;;4974365;28;20216;-77
2021/10/05 00:59:18;;;;;;;6.70;6.03;;;12.40;99.90;;;;;;4956494;28;20280;-77
2021/10/05 01:01:45;;;;;;;6.10;5.50;;;12.40;99.90;;;;;;4964396;28;20212;-77
2021/10/05 01:04:12;;;;;;;6.88;6.22;;;12.40;99.90;;;;;;4975228;28;20233;-76
2021/10/05 01:06:47;;;;;;;6.13;5.57;;;12.40;99.90;;;;;;4976895;28;20213;-76
2021/10/05 01:09:14;;;;;;;10.07;5.85;;;12.40;99.90;;;;;;4977259;28;20420;-76
2021/10/05 01:11:43;;;;;;;6.95;6.25;;;12.40;99.90;;;;;;4969427;28;20254;-77
2021/10/05 01:14:09;;;;;;;7.05;6.30;;;12.40;99.90;;;;;;4958383;29;20242;-77
2021/10/05 01:16:37;;;;;;;7.05;6.35;;;12.50;99.90;;;;;;4958330;28;20198;-77
2021/10/05 01:19:04;;;;;;;6.30;5.72;;;12.50;99.90;;;;;;4957890;29;20222;-77
2021/10/05 01:21:33;;;;;;;6.38;5.47;;;12.50;99.90;;;;;;4964258;28;20205;-77
2021/10/05 01:24:06;;;;;;;6.82;5.82;;;12.40;99.90;;;;;;4978522;28;20212;-77
2021/10/05 01:26:33;;;;;;;11.02;5.97;;;12.40;99.90;;;;;;4973329;28;20202;-78
2021/10/05 01:29:02;;;;;;;7.43;6.72;;;12.40;99.90;;;;;;4958754;28;20765;-78
2021/10/05 01:31:30;;;;;;;8.68;5.88;;;12.50;99.90;;;;;;4977557;28;20221;-78
2021/10/05 01:33:58;;;;;;;7.88;7.07;;;12.40;99.90;;;;;;4977272;28;20554;-78
2021/10/05 01:36:25;;;;;;;7.78;6.97;;;12.50;99.90;;;;;;4978074;28;20241;-79
2021/10/05 01:38:53;;;;;;;8.00;6.40;;;12.40;99.90;;;;;;4976880;28;20677;-78
2021/10/05 01:41:21;;;;;;;10.95;6.80;;;12.40;99.90;;;;;;4976733;28;20253;-78
2021/10/05 01:43:48;;;;;;;8.10;7.30;;;12.40;99.90;;;;;;4986583;28;20236;-79
2021/10/05 01:46:15;;;;;;;8.52;7.60;;;12.30;99.90;;;;;;4994974;28;20257;-79
2021/10/05 01:48:43;;;;;;;7.40;6.70;;;12.30;99.90;;;;;;5000178;28;20193;-79
2021/10/05 01:51:11;;;;;;;8.45;7.38;;;12.30;99.90;;;;;;4983872;28;20294;-79
2021/10/05 01:53:38;;;;;;;9.88;7.95;;;12.30;99.90;;;;;;4981088;28;20201;-78
2021/10/05 01:56:07;;;;;;;10.00;8.75;;;12.30;99.90;;;;;;4976386;28;20210;-78
2021/10/05 01:58:34;;;;;;;10.07;8.90;;;12.20;99.90;;;;;;4986145;28;20276;-78
2021/10/05 02:01:02;;;;;;;9.50;8.32;;;12.10;99.90;;;;;;4984861;28;20245;-78
2021/10/05 02:03:29;;;;;;;10.57;8.40;;;12.20;99.90;;;;;;4963269;29;20585;-77
2021/10/05 02:05:56;;;;;;;10.23;8.95;;;12.20;99.90;;;;;;4961071;28;20215;-78
2021/10/05 02:08:23;;;;;;;10.90;9.60;;;12.20;99.90;;;;;;4960016;29;20222;-77
2021/10/05 02:10:50;;;;;;;12.70;8.77;;;12.20;99.90;;;;;;4964716;28;20235;-77
2021/10/05 02:13:18;;;;;;;9.48;8.48;;;12.20;99.90;;;;;;4979424;28;20295;-77
2021/10/05 02:15:45;;;;;;;11.48;9.60;;;12.20;99.90;;;;;;4970494;28;20299;-76
2021/10/05 02:18:12;;;;;;;9.98;8.75;;;12.20;99.90;;;;;;4976732;28;20275;-77
2021/10/05 02:20:39;;;;;;;11.48;9.18;;;12.20;99.90;;;;;;4973028;28;20279;-76
2021/10/05 02:23:06;;;;;;;10.45;9.35;;;12.20;99.90;;;;;;4957144;29;20629;-77
2021/10/05 02:25:33;;;;;;;13.60;9.68;;;12.30;99.90;;;;;;4957963;28;20233;-77
2021/10/05 02:28:01;;;;;;;11.13;9.88;;;12.20;99.90;;;;;;4976531;28;20221;-78
2021/10/05 02:30:30;;;;;;;12.00;10.13;;;12.20;99.90;;;;;;4976870;28;20233;-77
2021/10/05 02:32:56;;;;;;;14.05;10.88;;;12.20;99.90;;;;;;4976271;28;20689;-76
2021/10/05 02:35:23;;;;;;;10.95;9.35;;;12.20;99.90;;;;;;4976024;28;20209;-77
2021/10/05 02:37:50;;;;;;;13.35;11.68;;;12.20;99.90;;;;;;4975290;28;20202;-77
2021/10/05 02:40:17;;;;;;;11.80;10.60;;;12.20;99.90;;;;;;4975471;28;20228;-78
2021/10/05 02:42:45;;;;;;;14.52;11.65;;;12.20;99.90;;;;;;4958899;28;20296;-77
2021/10/05 02:45:11;;;;;;;17.00;13.02;;;12.20;99.90;;;;;;4960924;28;20201;-77
2021/10/05 02:47:40;;;;;;;20.35;13.90;;;12.10;99.90;;;;;;4975725;28;20213;-77
2021/10/05 02:50:08;;;;;;;21.15;14.57;;;12.20;99.90;;;;;;4979262;28;20584;-78
2021/10/05 02:52:35;;;;;;;18.35;14.07;;;12.10;99.90;;;;;;4990820;28;20213;-78
2021/10/05 02:55:02;;;;;;;17.48;12.95;;;12.10;99.90;;;;;;4975544;28;20205;-78
2021/10/05 02:57:28;;;;;;;15.02;13.18;;;12.10;99.90;;;;;;4972444;29;20240;-77
2021/10/05 02:59:55;;;;;;;15.50;12.45;;;12.20;99.90;;;;;;4966865;28;20288;-76
2021/10/05 03:02:22;;;;;;;15.98;12.95;;;12.20;99.90;;;;;;4957570;29;20301;-78
2021/10/05 03:04:50;;;;;;;15.77;12.02;;;12.20;99.90;;;;;;4957012;28;20297;-77
2021/10/05 03:07:18;;;;;;;17.75;12.15;;;12.20;99.90;;;;;;4956114;29;20212;-78
2021/10/05 03:09:45;;;;;;;17.17;12.95;;;12.10;99.90;;;;;;4970799;28;20712;-78
2021/10/05 03:12:12;;;;;;;17.13;13.27;;;12.10;99.90;;;;;;4975272;28;20316;-78
2021/10/05 03:14:38;;;;;;;18.13;13.25;;;12.10;99.90;;;;;;4976427;28;20287;-77
2021/10/05 03:17:05;;;;;;;19.65;13.05;;;12.10;99.90;;;;;;4975090;28;20216;-77
2021/10/05 03:19:32;;;;;;;17.88;12.85;;;12.10;99.90;;;;;;4963057;28;20238;-79
2021/10/05 03:22:00;;;;;;;16.83;12.73;;;12.10;99.90;;;;;;4955688;29;20202;-78
2021/10/05 03:24:27;;;;;;;15.90;12.48;;;12.20;99.90;;;;;;4965543;28;20204;-78
2021/10/05 03:26:55;;;;;;;16.90;12.63;;;12.20;99.90;;;;;;4974324;28;20216;-77
2021/10/05 03:29:22;;;;;;;16.65;12.05;;;12.10;99.90;;;;;;4975040;28;20256;-77
2021/10/05 03:31:49;;;;;;;15.77;12.32;;;12.10;99.90;;;;;;4974810;28;20316;-78
2021/10/05 03:34:16;;;;;;;16.05;13.18;;;12.10;99.90;;;;;;4972833;28;20232;-77
2021/10/05 03:36:43;;;;;;;14.00;11.35;;;12.20;99.90;;;;;;4956209;29;20253;-78
2021/10/05 03:39:11;;;;;;;17.67;12.57;;;12.20;99.90;;;;;;4964407;29;20317;-77
2021/10/05 03:41:38;;;;;;;22.77;12.35;;;12.20;99.90;;;;;;4975990;29;20226;-79
2021/10/05 03:44:05;;;;;;;17.23;12.85;;;12.20;99.90;;;;;;4978522;29;20224;-78
2021/10/05 03:46:32;;;;;;;13.50;10.23;;;12.10;99.90;;;;;;4969057;28;20204;-78
2021/10/05 03:48:59;;;;;;;15.82;12.05;;;12.20;99.90;;;;;;4974815;28;20220;-78
2021/10/05 03:51:26;;;;;;;17.08;11.10;;;12.20;99.90;;;;;;4975167;28;20319;-77
2021/10/05 03:53:52;;;;;;;17.48;12.45;;;12.20;99.90;;;;;;4975100;28;20205;-78
2021/10/05 03:56:21;;;;;;;14.68;11.70;;;12.20;99.90;;;;;;4973236;28;20284;-77
2021/10/05 03:58:48;;;;;;;16.55;12.60;;;12.20;99.90;;;;;;4955349;29;20241;-76
2021/10/05 04:01:15;;;;;;;16.63;11.93;;;12.20;99.90;;;;;;4961932;28;20230;-76
2021/10/05 04:03:41;;;;;;;15.15;11.15;;;12.20;99.90;;;;;;4976021;28;20570;-78
2021/10/05 04:06:09;;;;;;;18.35;12.70;;;12.20;99.90;;;;;;4974943;28;20243;-78
2021/10/05 04:08:36;;;;;;;17.38;13.20;;;12.10;99.90;;;;;;4974752;28;20212;-77
2021/10/05 04:11:03;;;;;;;16.10;12.45;;;12.10;99.90;;;;;;4974600;28;20237;-78
2021/10/05 04:13:31;;;;;;;15.02;11.80;;;12.10;99.90;;;;;;4974955;28;20300;-78
2021/10/05 04:15:59;;;;;;;20.30;12.85;;;12.20;99.90;;;;;;4975742;28;20209;-78
2021/10/05 04:18:25;;;;;;;16.20;12.02;;;12.20;99.90;;;;;;4959876;28;20205;-77
2021/10/05 04:20:52;;;;;;;19.15;12.90;;;12.30;99.90;;;;;;4957157;29;20317;-77
2021/10/05 04:23:19;;;;;;;19.80;11.93;;;12.30;99.90;;;;;;4986269;28;20205;-78
2021/10/05 04:25:46;;;;;;;18.88;12.60;;;12.30;99.90;;;;;;4997351;28;20221;-77
2021/10/05 04:28:15;;;;;;;20.90;12.75;;;12.30;99.90;;;;;;4979419;28;20216;-77
2021/10/05 04:30:46;;;;;;;18.98;13.45;;;12.20;99.90;;;;;;4968595;28;20229;-75
2021/10/05 04:33:13;;;;;;;18.65;12.75;;;12.20;99.90;;;;;;4961601;29;20210;-75
2021/10/05 04:35:40;;;;;;;22.50;13.68;;;12.20;99.90;;;;;;4960378;29;20237;-76
2021/10/05 04:38:07;;;;;;;23.02;14.63;;;12.20;99.90;;;;;;4967242;28;20255;-77
2021/10/05 04:40:34;;;;;;;19.38;13.35;;;12.10;99.90;;;;;;4979927;28;20245;-78
2021/10/05 04:43:01;;;;;;;23.92;15.15;;;12.10;99.90;;;;;;4994277;28;20211;-78
2021/10/05 04:45:28;;;;;;;19.05;14.32;;;12.20;99.90;;;;;;4985363;28;20291;-76
2021/10/05 04:47:57;;;;;;;21.77;16.00;;;12.20;99.90;;;;;;4983906;28;20576;-77
2021/10/05 04:50:24;;;;;;;21.92;15.43;;;12.30;99.90;;;;;;4989218;28;20369;-78
2021/10/05 04:52:51;;;;;;;18.70;13.32;;;12.40;99.90;;;;;;4984640;28;20268;-77
2021/10/05 04:55:17;;;;;;;23.70;14.35;;;12.40;99.90;;;;;;4978940;28;20254;-76
2021/10/05 04:57:44;;;;;;;19.75;13.43;;;12.50;99.90;;;;;;4978322;28;20198;-75
2021/10/05 05:00:12;;;;;;;20.05;12.88;;;12.50;99.90;;;;;;4977788;28;20312;-77
2021/10/05 05:02:39;;;;;;;18.50;12.38;;;12.50;99.90;;;;;;4978493;28;20213;-76
2021/10/05 05:05:09;;;;;;;21.23;14.70;;;12.50;99.90;;;;;;4962792;28;20226;-75
2021/10/05 05:07:35;;;;;;;17.50;13.00;;;12.60;99.90;;;;;;4963676;29;20248;-74
2021/10/05 05:10:05;;;;;;;17.00;12.63;;;12.60;99.90;;;;;;4992744;23;20257;-80
2021/10/05 05:12:32;;;;;;;18.83;13.25;;;12.60;99.90;;;;;;4959362;29;20241;-81
2021/10/05 05:15:00;;;;;;;16.40;11.48;;;12.60;99.90;;;;;;4953412;29;20210;-80
2021/10/05 05:17:27;;;;;;;18.75;11.98;;;12.60;99.90;;;;;;4946119;29;20243;-81
2021/10/05 05:19:54;;;;;;;18.67;11.68;;;12.70;99.90;;;;;;4939470;29;20255;-80
2021/10/05 05:22:22;;;;;;;15.68;11.60;;;12.60;99.90;;;;;;4931026;29;20215;-81
2021/10/05 05:24:49;;;;;;;19.08;13.07;;;12.70;99.90;;;;;;4935163;29;20255;-82
2021/10/05 05:27:16;;;;;;;18.70;12.98;;;12.70;99.90;;;;;;4941441;29;20227;-80
2021/10/05 05:29:43;;;;;;;19.83;12.35;;;12.60;99.90;;;;;;4931802;29;20226;-81
2021/10/05 05:32:10;;;;;;;17.67;12.07;;;12.70;99.90;;;;;;4935036;29;20223;-81
2021/10/05 05:34:37;;;;;;;20.15;12.57;;;12.70;99.90;;;;;;4941891;29;20195;-82
2021/10/05 05:37:06;;;;;;;20.77;12.80;;;12.70;99.90;;;;;;4939824;29;20276;-81
2021/10/05 05:39:34;;;;;;;18.30;12.25;;;12.80;99.90;;;;;;4929325;29;20215;-81
2021/10/05 05:42:01;;;;;;;16.50;11.25;;;12.70;99.90;;;;;;4921029;29;20213;-82
2021/10/05 05:44:28;;;;;;;18.45;12.55;;;12.80;99.90;;;;;;4923958;29;20217;-83
2021/10/05 05:46:55;;;;;;;19.55;14.15;;;12.70;99.90;;;;;;4938799;29;20262;-81
2021/10/05 05:49:22;;;;;;;18.77;13.30;;;12.70;99.90;;;;;;4924577;29;20222;-80
2021/10/05 05:51:49;;;;;;;19.63;12.85;;;12.60;99.90;;;;;;4922753;29;20255;-81
2021/10/05 05:54:16;;;;;;;21.13;13.10;;;12.70;99.90;;;;;;4930215;29;20215;-79
2021/10/05 05:56:44;;;;;;;22.27;14.48;;;12.60;99.90;;;;;;4927008;29;20208;-78
2021/10/05 05:59:11;;;;;;;24.25;14.65;;;12.60;99.90;;;;;;4922311;29;20215;-78
2021/10/05 06:01:38;;;;;;;20.30;13.25;;;12.60;99.90;;;;;;4923522;29;20233;-78
2021/10/05 06:04:05;;;;;;;21.10;14.10;;;12.60;99.90;;;;;;4925739;29;20230;-79
2021/10/05 06:06:33;;;;;;;21.30;13.45;;;12.70;99.90;;;;;;4924491;29;20238;-78
2021/10/05 06:09:01;;;;;;;19.40;13.65;;;12.70;99.90;;;;;;4922230;29;20560;-79
2021/10/05 06:11:31;;;;;;;18.42;11.63;;;12.80;99.90;;;;;;4918316;29;20231;-79
2021/10/05 06:13:59;;;;;;;18.50;12.43;;;12.80;99.90;;;;;;4925202;29;20208;-79
2021/10/05 06:16:26;;;;;;;17.30;12.57;;;12.80;99.90;;;;;;4925712;29;20218;-79
2021/10/05 06:18:53;;;;;;;18.23;12.20;;;12.90;99.90;;;;;;4922501;29;20263;-79
2021/10/05 06:21:20;;;;;;;18.95;13.07;;;12.90;99.90;;;;;;4908558;29;20796;-79
2021/10/05 06:23:47;;;;;;;18.83;12.45;;;12.90;99.90;;;;;;4922871;29;20207;-80
2021/10/05 06:26:14;;;;;;;15.52;11.10;;;12.90;99.90;;;;;;4921501;29;20218;-77
2021/10/05 06:28:42;;;;;;;21.00;12.55;;;12.90;99.90;;;;;;4914918;29;20277;-82
2021/10/05 06:31:11;;;;;;;22.08;12.90;;;12.90;99.90;;;;;;4917318;29;20250;-79
2021/10/05 06:33:38;;;;;;;17.83;12.10;;;12.90;99.90;;;;;;4927510;29;20253;-79
2021/10/05 06:36:05;;;;;;;15.82;12.38;;;13.00;99.90;;;;;;4922699;29;20267;-78
2021/10/05 06:38:32;;;;;;;18.00;12.65;;;13.00;99.90;;;;;;4919372;29;20323;-79
2021/10/05 06:40:59;;;;;;;14.50;11.30;;;13.10;99.90;;;;;;4922315;29;20254;-79
2021/10/05 06:43:26;;;;;;;15.25;11.45;;;13.20;99.90;;;;;;4923281;29;20239;-80
2021/10/05 06:45:53;;;;;;;16.02;10.93;;;13.30;99.90;;;;;;4922419;29;20208;-79
2021/10/05 06:48:21;;;;;;;19.52;12.07;;;13.30;99.90;;;;;;4921054;29;20301;-78
2021/10/05 06:50:48;;;;;;;14.50;11.13;;;13.50;99.90;;;;;;4921509;29;20255;-78
2021/10/05 06:53:16;;;;;;;12.05;10.30;;;13.50;99.90;;;;;;4927532;29;20666;-79
2021/10/05 06:55:46;;;;;;;13.23;10.68;;;13.50;99.90;;;;;;4922073;29;20267;-79
2021/10/05 06:58:13;;;;;;;13.27;11.07;;;13.60;99.90;;;;;;4920911;29;20585;-80
2021/10/05 07:00:40;;;;;;;12.80;10.23;;;13.70;99.90;;;;;;4920415;29;20236;-78
2021/10/05 07:03:07;;;;;;;12.55;9.77;;;13.80;99.90;;;;;;4919828;29;20695;-77
2021/10/05 07:05:36;;;;;;;11.68;10.32;;;13.80;99.90;;;;;;4922673;29;20235;-79
2021/10/05 07:08:12;;;;;;;12.68;9.80;;;13.90;99.90;;;;;;4930029;29;20218;-79
2021/10/05 07:10:40;;;;;;;10.98;9.88;;;14.00;99.90;;;;;;4931421;29;20245;-80
2021/10/05 07:13:08;;;;;;;14.13;10.93;;;14.00;99.90;;;;;;4929430;29;20240;-78
2021/10/05 07:15:35;;;;;;;11.95;9.55;;;13.90;99.90;;;;;;4931167;29;20581;-80
2021/10/05 07:18:02;;;;;;;10.52;9.10;;;14.00;99.90;;;;;;4930993;29;20216;-79
2021/10/05 07:20:30;;;;;;;9.38;8.38;;;13.90;99.90;;;;;;4921362;29;20240;-79
2021/10/05 07:23:00;;;;;;;10.77;9.40;;;13.80;99.90;;;;;;4920777;29;20205;-80
2021/10/05 07:25:27;;;;;;;11.27;9.52;;;13.80;99.90;;;;;;4922615;29;20200;-79
2021/10/05 07:27:55;;;;;;;10.20;8.60;;;13.80;99.90;;;;;;4923637;29;20215;-79
2021/10/05 07:30:23;;;;;;;12.25;9.65;;;13.80;99.90;;;;;;4922442;29;20235;-77
2021/10/05 07:32:51;;;;;;;11.48;9.07;;;13.80;99.90;;;;;;4929761;29;20235;-77
2021/10/05 07:35:19;;;;;;;12.57;9.52;;;13.90;99.90;;;;;;4933980;29;20205;-79
2021/10/05 07:37:46;;;;;;;9.30;8.40;;;13.90;99.90;;;;;;4936698;29;20219;-79
2021/10/05 07:40:16;;;;;;;7.65;6.85;;;13.90;99.90;;;;;;4924374;29;20268;-79
2021/10/05 07:42:43;;;;;;;8.07;7.13;;;14.10;99.90;;;;;;4923848;29;20272;-80
2021/10/05 07:45:11;;;;;;;6.43;5.82;;;14.20;99.90;;;;;;4923437;29;20225;-78
2021/10/05 07:47:38;;;;;;;7.03;6.15;;;14.10;99.90;;;;;;4921285;29;20225;-79
2021/10/05 07:50:06;;;;;;;7.03;6.32;;;14.30;99.90;;;;;;4921533;29;20232;-78
2021/10/05 07:52:33;;;;;;;8.20;7.38;;;14.20;99.90;;;;;;4927370;29;20211;-82
2021/10/05 07:55:00;;;;;;;8.13;7.10;;;14.20;99.90;;;;;;4938274;29;20577;-80
2021/10/05 07:57:28;;;;;;;7.45;6.75;;;14.10;99.90;;;;;;4928517;29;20188;-79
2021/10/05 07:59:55;;;;;;;11.57;8.48;;;14.10;99.90;;;;;;4939777;29;20223;-80
2021/10/05 08:02:22;;;;;;;10.82;8.40;;;14.00;99.90;;;;;;4925140;29;20308;-79
2021/10/05 08:04:49;;;;;;;9.50;8.50;;;14.00;99.90;;;;;;4919449;29;20208;-77
2021/10/05 08:07:16;;;;;;;9.73;8.68;;;13.90;99.90;;;;;;4920528;29;20295;-79
2021/10/05 08:09:42;;;;;;;9.65;8.65;;;13.90;99.90;;;;;;4920369;29;20260;-78
2021/10/05 08:12:10;;;;;;;9.73;8.48;;;14.00;99.90;;;;;;4921664;29;20277;-79
2021/10/05 08:14:39;;;;;;;8.70;7.57;;;13.90;99.90;;;;;;4920030;29;20214;-78
2021/10/05 08:17:06;;;;;;;9.30;7.50;;;13.90;99.90;;;;;;4920282;29;20213;-78
2021/10/05 08:19:33;;;;;;;12.73;9.05;;;13.80;99.90;;;;;;4921614;29;20211;-79
2021/10/05 08:22:00;;;;;;;10.57;8.43;;;13.80;99.90;;;;;;4922298;29;20301;-80
2021/10/05 08:24:27;;;;;;;9.10;7.88;;;14.00;99.90;;;;;;4921412;29;20217;-81
2021/10/05 08:26:54;;;;;;;10.80;8.13;;;14.20;99.90;;;;;;4922170;29;20245;-80
2021/10/05 08:29:21;;;;;;;8.48;7.57;;;14.30;99.90;;;;;;4922389;29;20275;-81
2021/10/05 08:31:50;;;;;;;8.75;7.40;;;14.60;99.90;;;;;;4922965;29;20321;-80
2021/10/05 08:34:18;;;;;;;8.30;7.50;;;14.80;99.90;;;;;;4926029;29;20376;-80
2021/10/05 08:36:46;;;;;;;7.70;6.72;;;14.90;99.90;;;;;;4927808;29;20286;-81
2021/10/05 08:39:15;;;;;;;6.70;6.10;;;15.10;99.90;;;;;;4925146;29;20221;-79
2021/10/05 08:41:45;;;;;;;7.18;6.47;;;15.10;98.30;;;;;;4920451;29;20227;-78
2021/10/05 08:44:13;;;;;;;8.50;6.30;;;15.30;97.10;;;;;;4924096;29;20210;-79
2021/10/05 08:46:41;;;;;;;6.07;5.57;;;15.30;95.50;;;;;;4930528;29;20279;-80
2021/10/05 08:49:10;;;;;;;8.82;5.57;;;15.10;95.10;;;;;;4927594;29;20493;-81
2021/10/05 08:51:38;;;;;;;6.20;5.60;;;15.20;95.50;;;;;;4920485;29;20283;-79
2021/10/05 08:54:05;;;;;;;5.22;4.72;;;15.20;95.00;;;;;;4919859;29;20289;-78
2021/10/05 08:56:32;;;;;;;5.03;4.17;;;15.20;94.60;;;;;;4919992;29;20670;-81
2021/10/05 08:58:59;;;;;;;4.80;4.40;;;15.20;95.40;;;;;;4919951;29;20465;-80
2021/10/05 09:01:32;;;;;;;4.05;3.75;;;15.30;94.30;;;;;;4918440;29;20332;-79
2021/10/05 09:03:59;;;;;;;4.03;3.73;;;15.50;93.50;;;;;;4918160;29;20674;-79
2021/10/05 09:06:28;;;;;;;3.97;3.58;;;15.50;93.00;;;;;;4919601;29;20499;-80
2021/10/05 09:08:55;;;;;;;2.80;2.60;;;15.50;91.90;;;;;;4919228;29;20242;-80
2021/10/05 09:11:24;;;;;;;2.80;2.60;;;15.70;91.00;;;;;;4918771;29;20929;-80
2021/10/05 09:13:53;;;;;;;2.40;2.20;;;15.80;90.00;;;;;;4918535;29;20267;-79
2021/10/05 09:16:23;;;;;;;3.50;3.20;;;15.80;88.70;;;;;;4919663;29;20214;-81
2021/10/05 09:18:59;;;;;;;3.00;2.80;;;15.80;88.00;;;;;;4917496;29;20554;-78
2021/10/05 09:21:30;;;;;;;2.90;2.70;;;15.90;88.80;;;;;;4918624;29;20553;-77
2021/10/05 09:24:00;;;;;;;4.50;3.07;;;16.00;87.90;;;;;;4917264;29;20825;-79
2021/10/05 09:26:39;;;;;;;3.50;3.20;;;16.10;85.40;;;;;;4921932;29;20554;-77
2021/10/05 09:29:25;;;;;;;3.97;3.57;;;16.30;84.10;;;;;;4920484;29;20455;-76
2021/10/05 09:31:56;;;;;;;3.40;3.10;;;16.30;83.00;;;;;;4923107;29;20493;-78
2021/10/05 09:34:45;;;;;;;4.90;3.53;;;16.30;82.00;;;;;;4926209;29;20507;-78
2021/10/05 09:37:18;;;;;;;3.50;3.20;;;16.40;82.10;;;;;;4921237;29;20464;-77
2021/10/05 09:39:48;;;;;;;3.23;2.93;;;16.50;82.20;;;;;;4901465;29;20467;-78
2021/10/05 09:42:21;;;;;;;2.97;2.77;;;16.50;81.50;;;;;;4901701;29;20503;-77
2021/10/05 09:44:57;;;;;;;3.37;3.07;;;16.70;78.40;;;;;;4918010;29;20487;-76
2021/10/05 09:47:35;;;;;;;3.20;2.90;;;17.00;76.10;;;;;;4930179;29;20909;-77
2021/10/05 09:50:03;;;;;;;2.70;2.50;;;17.10;74.90;;;;;;4919747;29;20575;-77
2021/10/05 09:52:42;;;;;;;3.00;2.70;;;17.10;74.70;;;;;;4919803;29;20482;-77
2021/10/05 09:55:10;;;;;;;2.43;2.23;;;17.30;74.30;;;;;;4933482;29;20503;-76
2021/10/05 09:57:37;;;;;;;3.47;3.00;;;17.30;72.50;;;;;;4937289;29;20493;-79
2021/10/05 10:00:06;;;;;;;4.37;2.50;;;17.10;72.40;;;;;;4936951;29;20550;-77
2021/10/05 10:02:36;;;;;;;2.77;2.37;;;17.10;74.10;;;;;;4934968;29;20451;-79
2021/10/05 10:05:03;;;;;;;2.37;2.27;;;16.90;71.40;;;;;;4923864;29;20447;-77
2021/10/05 10:07:30;;;;;;;2.00;1.80;;;17.00;74.00;;;;;;4923994;29;20470;-79
2021/10/05 10:09:59;;;;;;;3.20;2.20;;;17.10;70.80;;;;;;4922560;29;20501;-76
2021/10/05 10:12:26;;;;;;;2.50;2.03;;;17.40;69.90;;;;;;4924196;29;20463;-76
2021/10/05 10:14:53;;;;;;;2.40;2.20;;;17.60;66.90;;;;;;4932950;29;20528;-77
2021/10/05 10:17:24;;;;;;;4.50;2.13;;;17.60;65.60;;;;;;4935305;29;20439;-76
2021/10/05 10:19:51;;;;;;;2.00;1.90;;;17.60;65.50;;;;;;4937076;29;20440;-77
2021/10/05 10:22:19;;;;;;;1.90;1.80;;;17.40;65.40;;;;;;4939498;29;20466;-77
2021/10/05 10:24:48;;;;;;;1.83;1.73;;;17.30;66.50;;;;;;4923281;29;20455;-76
2021/10/05 10:27:18;;;;;;;2.00;1.80;;;17.20;65.20;;;;;;4920952;29;20498;-77
2021/10/05 10:29:46;;;;;;;1.60;1.50;;;17.40;64.80;;;;;;4920280;29;20673;-75
2021/10/05 10:32:17;;;;;;;1.53;1.30;;;17.60;64.30;;;;;;4919663;29;20949;-76
2021/10/05 10:34:45;;;;;;;1.60;1.40;;;17.70;64.20;;;;;;4920002;29;20495;-76
2021/10/05 10:37:16;;;;;;;1.73;1.63;;;17.80;61.50;;;;;;4921880;29;20466;-76
2021/10/05 10:39:44;;;;;;;2.03;1.70;;;18.00;61.10;;;;;;4923201;29;20451;-75
2021/10/05 10:42:12;;;;;;;1.60;1.50;;;17.90;62.20;;;;;;4926422;29;20793;-75
2021/10/05 10:44:42;;;;;;;1.30;1.20;;;18.20;61.70;;;;;;4936276;29;20432;-76
2021/10/05 10:47:12;;;;;;;1.37;1.27;;;18.40;60.10;;;;;;4929309;29;20468;-76
2021/10/05 10:49:39;;;;;;;1.60;1.50;;;18.40;59.40;;;;;;4926927;29;20488;-77
2021/10/05 10:52:07;;;;;;;2.63;1.60;;;18.30;59.90;;;;;;4924370;29;20884;-77
2021/10/05 10:54:35;;;;;;;1.10;1.10;;;18.10;59.50;;;;;;4922558;29;21134;-76
2021/10/05 10:57:03;;;;;;;2.50;1.60;;;18.10;60.60;;;;;;4923378;29;20471;-76
2021/10/05 10:59:31;;;;;;;1.77;1.40;;;18.10;60.20;;;;;;4920065;29;20873;-76
2021/10/05 11:02:04;;;;;;;1.90;1.57;;;17.90;60.60;;;;;;4918400;29;20464;-76
2021/10/05 11:04:32;;;;;;;1.40;1.30;;;17.70;62.30;;;;;;4921596;29;20483;-77
2021/10/05 11:07:00;;;;;;;1.20;1.20;;;17.50;61.20;;;;;;4921299;29;20495;-77
2021/10/05 11:09:32;;;;;;;1.53;1.43;;;17.50;62.90;;;;;;4921850;29;20492;-77
2021/10/05 11:12:00;;;;;;;1.50;1.40;;;17.60;62.20;;;;;;4956926;23;20935;-77
2021/10/05 11:14:29;;;;;;;1.20;1.10;;;17.60;61.80;;;;;;4962232;29;20537;-78
2021/10/05 11:16:58;;;;;;;1.50;1.40;;;17.70;61.50;;;;;;4956312;29;20831;-77
2021/10/05 11:19:29;;;;;;;1.20;1.20;;;17.70;61.10;;;;;;4956356;29;20909;-77
2021/10/05 11:21:57;;;;;;;1.20;1.10;;;17.40;60.00;;;;;;4956635;28;20485;-77
2021/10/05 11:24:35;;;;;;;1.30;1.20;;;17.40;61.50;;;;;;4956037;29;20478;-77
2021/10/05 11:27:08;;;;;;;2.20;1.00;;;17.80;61.20;;;;;;4957320;29;20550;-78
2021/10/05 11:29:35;;;;;;;1.10;1.00;;;18.30;58.00;;;;;;4956313;29;20975;-77
2021/10/05 11:32:06;;;;;;;0.90;0.90;;;18.40;57.10;;;;;;4957356;29;20541;-79
2021/10/05 11:34:38;;;;;;;1.43;1.13;;;18.50;57.20;;;;;;4957777;29;20491;-77
2021/10/05 11:37:07;;;;;;;3.63;1.20;;;18.30;58.20;;;;;;4959442;29;20459;-77
2021/10/05 11:39:35;;;;;;;1.33;1.23;;;18.20;59.50;;;;;;4957665;29;21027;-78
2021/10/05 11:42:09;;;;;;;1.30;1.07;;;18.30;59.70;;;;;;4960843;29;20482;-78
2021/10/05 11:44:43;;;;;;;0.90;0.80;;;18.40;59.10;;;;;;4965648;29;20461;-79
2021/10/05 11:47:12;;;;;;;1.40;1.27;;;18.30;57.10;;;;;;4961498;28;20449;-76
2021/10/05 11:49:43;;;;;;;1.57;1.00;;;18.20;57.70;;;;;;4955054;28;20465;-77
2021/10/05 11:52:16;;;;;;;4.53;1.33;;;18.10;58.50;;;;;;4956024;28;20536;-75
2021/10/05 11:54:43;;;;;;;2.23;1.40;;;18.30;58.90;;;;;;4938887;29;20580;-76
2021/10/05 11:57:12;;;;;;;0.70;0.70;;;18.50;57.60;;;;;;4955180;29;20615;-77
2021/10/05 11:59:40;;;;;;;1.77;1.60;;;18.40;57.10;;;;;;4955564;29;20558;-74
2021/10/05 12:02:08;;;;;;;1.40;1.30;;;18.40;57.90;;;;;;4957613;29;20469;-78
2021/10/05 12:04:36;;;;;;;1.20;1.20;;;18.40;58.80;;;;;;4960318;29;20554;-79
2021/10/05 12:07:07;;;;;;;0.93;0.90;;;18.40;58.70;;;;;;4964854;29;20494;-78
2021/10/05 12:09:34;;;;;;;1.00;1.00;;;18.40;58.80;;;;;;4958962;29;20533;-77
2021/10/05 12:12:08;;;;;;;1.10;1.10;;;18.50;58.40;;;;;;4956533;29;20499;-78
2021/10/05 12:14:38;;;;;;;3.57;1.07;;;18.70;58.90;;;;;;4956908;29;20495;-78
2021/10/05 12:17:06;;;;;;;1.57;0.80;;;18.70;58.90;;;;;;4962435;29;20495;-78
2021/10/05 12:19:35;;;;;;;3.13;0.90;;;18.90;57.60;;;;;;4958274;29;20995;-78
2021/10/05 12:22:05;;;;;;;0.87;0.87;;;19.00;57.70;;;;;;4956089;28;20518;-77
2021/10/05 12:24:38;;;;;;;1.63;1.10;;;19.00;57.70;;;;;;4956456;29;20537;-77
2021/10/05 12:27:05;;;;;;;1.93;1.40;;;19.00;57.70;;;;;;4966012;29;20442;-77
2021/10/05 12:29:33;;;;;;;1.60;0.87;;;19.00;57.70;;;;;;4971037;29;20463;-78
2021/10/05 12:32:01;;;;;;;1.00;1.00;;;19.10;57.80;;;;;;4969818;28;21026;-77
2021/10/05 12:34:36;;;;;;;1.07;0.97;;;19.10;56.70;;;;;;4973130;29;20485;-77
2021/10/05 12:37:07;;;;;;;1.20;1.10;;;18.70;57.40;;;;;;4976803;29;20447;-77
2021/10/05 12:39:35;;;;;;;2.00;1.17;;;18.50;58.90;;;;;;4972542;29;20526;-78
2021/10/05 12:42:04;;;;;;;5.60;1.20;;;18.50;60.30;;;;;;4968186;29;20498;-76